createdAt,value
2022-12-17T00:00:56.186Z,32.30
2022-12-17T00:03:23.022Z,32.30
2022-12-17T00:05:49.629Z,32.20
2022-12-17T00:08:16.136Z,32.20
2022-12-17T00:10:42.637Z,32.20
2022-12-17T00:13:09.122Z,31.80
2022-12-17T00:15:36.142Z,31.60
2022-12-17T00:18:02.637Z,32.20
2022-12-17T00:20:29.070Z,32.00
2022-12-17T00:22:55.494Z,31.80
2022-12-17T00:25:22.785Z,32.20
2022-12-17T00:27:49.289Z,32.10
2022-12-17T00:30:15.849Z,32.20
2022-12-17T00:32:42.304Z,32.10
2022-12-17T00:35:08.927Z,32.10
2022-12-17T00:37:36.334Z,32.00
2022-12-17T00:40:02.829Z,31.50
2022-12-17T00:42:29.298Z,32.00
2022-12-17T00:44:55.767Z,32.00
2022-12-17T00:47:22.844Z,31.90
2022-12-17T00:49:49.368Z,32.00
2022-12-17T00:52:16.059Z,31.90
2022-12-17T00:54:42.507Z,31.90
2022-12-17T00:57:08.985Z,31.90
2022-12-17T00:59:36.456Z,31.80
2022-12-17T01:02:03.031Z,31.30
2022-12-17T01:04:29.620Z,31.80
2022-12-17T01:06:56.159Z,31.80
2022-12-17T01:09:22.994Z,30.90
2022-12-17T01:11:49.444Z,31.70
2022-12-17T01:14:15.913Z,31.60
2022-12-17T01:16:42.411Z,31.10
2022-12-17T01:19:08.894Z,31.70
2022-12-17T01:21:35.334Z,31.70
2022-12-17T01:24:01.797Z,31.10
2022-12-17T01:26:28.285Z,31.70
2022-12-17T01:28:54.738Z,31.70
2022-12-17T01:31:21.201Z,31.60
2022-12-17T01:33:47.755Z,31.50
2022-12-17T01:36:14.245Z,31.60
2022-12-17T01:38:40.718Z,31.00
2022-12-17T01:41:07.149Z,31.60
2022-12-17T01:43:33.879Z,31.50
2022-12-17T01:46:00.675Z,31.00
2022-12-17T01:48:27.138Z,31.40
2022-12-17T01:50:53.593Z,31.30
2022-12-17T01:53:20.077Z,30.80
2022-12-17T01:55:46.576Z,30.80
2022-12-17T01:58:13.102Z,31.30
2022-12-17T02:00:39.607Z,30.70
2022-12-17T02:03:06.222Z,31.30
2022-12-17T02:05:32.677Z,31.40
2022-12-17T02:07:59.129Z,31.40
2022-12-17T02:10:25.628Z,31.50
2022-12-17T02:12:52.068Z,30.90
2022-12-17T02:15:18.533Z,30.80
2022-12-17T02:17:45.072Z,31.30
2022-12-17T02:20:11.550Z,31.40
2022-12-17T02:22:38.023Z,31.00
2022-12-17T02:25:04.567Z,30.70
2022-12-17T02:27:31.011Z,31.40
2022-12-17T02:29:57.584Z,31.30
2022-12-17T02:32:24.041Z,30.90
2022-12-17T02:34:50.477Z,30.60
2022-12-17T02:37:16.920Z,31.30
2022-12-17T02:39:43.419Z,31.30
2022-12-17T02:42:09.858Z,31.20
2022-12-17T02:44:36.336Z,30.60
2022-12-17T02:47:02.825Z,31.20
2022-12-17T02:49:29.300Z,31.10
2022-12-17T02:51:55.859Z,31.10
2022-12-17T02:54:22.340Z,31.00
2022-12-17T02:56:48.802Z,30.90
2022-12-17T02:59:15.281Z,30.90
2022-12-17T03:01:41.845Z,30.80
2022-12-17T03:04:08.398Z,30.20
2022-12-17T03:06:34.931Z,30.80
2022-12-17T03:09:01.529Z,30.90
2022-12-17T03:11:28.006Z,30.90
2022-12-17T03:13:54.468Z,30.20
2022-12-17T03:16:21.037Z,30.30
2022-12-17T03:18:47.546Z,30.80
2022-12-17T03:21:13.993Z,30.80
2022-12-17T03:23:40.446Z,30.70
2022-12-17T03:26:06.933Z,30.60
2022-12-17T03:28:33.419Z,30.50
2022-12-17T03:30:59.933Z,30.70
2022-12-17T03:33:26.430Z,30.70
2022-12-17T03:35:52.916Z,30.70
2022-12-17T03:38:19.342Z,30.70
2022-12-17T03:40:45.845Z,30.80
2022-12-17T03:43:12.329Z,30.20
2022-12-17T03:45:38.873Z,30.80
2022-12-17T03:48:05.397Z,30.80
2022-12-17T03:50:31.854Z,30.70
2022-12-17T03:52:58.342Z,30.30
2022-12-17T03:55:24.834Z,30.80
2022-12-17T03:57:51.281Z,30.40
2022-12-17T04:00:17.778Z,30.40
2022-12-17T04:02:44.465Z,30.30
2022-12-17T04:05:16.564Z,30.30
2022-12-17T04:07:46.337Z,30.30
2022-12-17T04:10:12.795Z,30.40
2022-12-17T04:12:39.258Z,30.30
2022-12-17T04:15:05.837Z,30.00
2022-12-17T04:17:32.341Z,30.20
2022-12-17T04:19:58.823Z,30.40
2022-12-17T04:22:25.258Z,30.40
2022-12-17T04:24:51.715Z,30.50
2022-12-17T04:27:18.152Z,29.90
2022-12-17T04:29:44.606Z,30.00
2022-12-17T04:32:11.038Z,30.30
2022-12-17T04:34:37.690Z,30.20
2022-12-17T04:37:04.367Z,29.80
2022-12-17T04:39:30.815Z,30.00
2022-12-17T04:41:57.300Z,29.90
2022-12-17T04:44:23.737Z,29.90
2022-12-17T04:46:50.308Z,29.70
2022-12-17T04:49:16.809Z,29.90
2022-12-17T04:51:43.393Z,30.30
2022-12-17T04:54:09.870Z,30.20
2022-12-17T04:56:36.342Z,29.70
2022-12-17T04:59:02.781Z,30.20
2022-12-17T05:01:29.400Z,29.90
2022-12-17T05:03:56.025Z,30.00
2022-12-17T05:06:22.533Z,31.20
2022-12-17T05:08:48.972Z,29.90
2022-12-17T05:11:15.424Z,29.50
2022-12-17T05:13:41.904Z,28.10
2022-12-17T05:16:08.430Z,29.20
2022-12-17T05:18:34.961Z,29.50
2022-12-17T05:21:01.398Z,29.10
2022-12-17T05:23:27.819Z,29.40
2022-12-17T05:25:54.320Z,29.90
2022-12-17T05:28:20.819Z,30.00
2022-12-17T05:30:47.320Z,29.90
2022-12-17T05:33:13.872Z,29.90
2022-12-17T05:35:40.324Z,30.30
2022-12-17T05:38:06.828Z,30.20
2022-12-17T05:40:33.264Z,31.30
2022-12-17T05:42:59.964Z,31.10
2022-12-17T05:45:26.428Z,31.30
2022-12-17T05:47:52.984Z,31.20
2022-12-17T05:50:19.461Z,30.60
2022-12-17T05:52:45.957Z,31.20
2022-12-17T05:55:12.402Z,30.60
2022-12-17T05:57:38.872Z,31.20
2022-12-17T06:00:05.328Z,30.70
2022-12-17T06:02:31.839Z,30.80
2022-12-17T06:05:02.117Z,30.70
2022-12-17T06:07:29.088Z,31.30
2022-12-17T06:09:55.694Z,31.40
2022-12-17T06:12:22.162Z,31.40
2022-12-17T06:14:48.730Z,31.50
2022-12-17T06:17:15.176Z,31.60
2022-12-17T06:19:41.619Z,31.60
2022-12-17T06:22:08.120Z,31.30
2022-12-17T06:24:34.563Z,31.30
2022-12-17T06:27:01.076Z,31.10
2022-12-17T06:29:27.548Z,31.00
2022-12-17T06:31:54.195Z,31.60
2022-12-17T06:34:20.750Z,31.10
2022-12-17T06:36:47.249Z,31.50
2022-12-17T06:39:13.737Z,31.50
2022-12-17T06:41:40.203Z,31.50
2022-12-17T06:44:06.685Z,31.50
2022-12-17T06:46:33.292Z,31.30
2022-12-17T06:48:59.754Z,31.20
2022-12-17T06:51:26.185Z,31.30
2022-12-17T06:53:52.664Z,31.40
2022-12-17T06:56:19.132Z,31.40
2022-12-17T06:58:45.602Z,31.10
2022-12-17T07:01:12.237Z,31.10
2022-12-17T07:03:39.093Z,30.90
2022-12-17T07:06:05.908Z,31.50
2022-12-17T07:08:32.475Z,31.30
2022-12-17T07:10:58.977Z,30.70
2022-12-17T07:13:25.416Z,31.20
2022-12-17T07:15:51.845Z,31.80
2022-12-17T07:18:18.371Z,31.90
2022-12-17T07:20:44.818Z,32.00
2022-12-17T07:23:11.258Z,31.40
2022-12-17T07:25:40.519Z,32.40
2022-12-17T07:28:10.955Z,32.90
2022-12-17T07:30:37.385Z,32.70
2022-12-17T07:33:03.839Z,32.20
2022-12-17T07:35:30.333Z,31.90
2022-12-17T07:37:56.815Z,32.70
2022-12-17T07:40:23.303Z,31.90
2022-12-17T07:42:49.733Z,32.30
2022-12-17T07:45:16.203Z,31.70
2022-12-17T07:47:42.637Z,32.80
2022-12-17T07:50:09.077Z,32.20
2022-12-17T07:52:35.636Z,32.10
2022-12-17T07:55:02.091Z,32.70
2022-12-17T07:57:28.666Z,31.30
2022-12-17T07:59:55.164Z,31.10
2022-12-17T08:02:23.761Z,31.90
2022-12-17T08:04:50.367Z,31.90
2022-12-17T08:07:16.881Z,31.80
2022-12-17T08:09:43.436Z,31.80
2022-12-17T08:12:09.902Z,31.80
2022-12-17T08:14:36.320Z,31.30
2022-12-17T08:17:02.925Z,31.90
2022-12-17T08:19:29.520Z,31.90
2022-12-17T08:21:55.999Z,31.10
2022-12-17T08:24:22.534Z,31.70
2022-12-17T08:26:48.993Z,31.50
2022-12-17T08:29:15.485Z,31.40
2022-12-17T08:31:41.945Z,31.10
2022-12-17T08:34:08.518Z,31.50
2022-12-17T08:36:34.982Z,31.80
2022-12-17T08:39:01.460Z,31.70
2022-12-17T08:41:28.022Z,31.00
2022-12-17T08:43:54.550Z,31.80
2022-12-17T08:46:21.035Z,31.90
2022-12-17T08:48:47.698Z,32.00
2022-12-17T08:51:14.129Z,31.80
2022-12-17T08:53:40.921Z,31.30
2022-12-17T08:56:07.728Z,31.30
2022-12-17T08:58:34.228Z,31.80
2022-12-17T09:01:00.800Z,31.20
2022-12-17T09:03:27.461Z,31.00
2022-12-17T09:05:54.007Z,31.60
2022-12-17T09:08:20.446Z,31.70
2022-12-17T09:10:46.920Z,31.70
2022-12-17T09:13:13.477Z,31.50
2022-12-17T09:15:39.946Z,32.00
2022-12-17T09:18:06.420Z,31.90
2022-12-17T09:20:32.923Z,31.40
2022-12-17T09:22:59.423Z,31.70
2022-12-17T09:25:25.890Z,32.00
2022-12-17T09:27:52.369Z,31.90
2022-12-17T09:30:18.941Z,31.80
2022-12-17T09:32:45.451Z,31.70
2022-12-17T09:35:11.881Z,31.90
2022-12-17T09:37:38.371Z,31.70
2022-12-17T09:40:04.859Z,31.70
2022-12-17T09:42:31.381Z,31.70
2022-12-17T09:44:57.828Z,31.80
2022-12-17T09:47:24.348Z,31.60
2022-12-17T09:49:50.793Z,31.60
2022-12-17T09:52:17.290Z,30.50
2022-12-17T09:54:43.951Z,30.80
2022-12-17T09:57:10.500Z,30.60
2022-12-17T09:59:37.051Z,31.20
2022-12-17T10:02:03.718Z,31.00
2022-12-17T10:04:30.345Z,31.10
2022-12-17T10:06:56.841Z,31.00
2022-12-17T10:09:23.755Z,31.00
2022-12-17T10:11:50.359Z,31.00
2022-12-17T10:14:16.837Z,30.90
2022-12-17T10:16:43.323Z,30.90
2022-12-17T10:19:09.824Z,30.90
2022-12-17T10:21:36.358Z,30.40
2022-12-17T10:24:02.901Z,30.40
2022-12-17T10:26:29.484Z,31.00
2022-12-17T10:28:55.932Z,30.90
2022-12-17T10:31:22.461Z,30.80
2022-12-17T10:33:49.184Z,30.30
2022-12-17T10:36:15.658Z,30.90
2022-12-17T10:38:42.137Z,31.00
2022-12-17T10:41:08.589Z,31.10
2022-12-17T10:43:35.384Z,31.10
2022-12-17T10:46:02.067Z,31.40
2022-12-17T10:48:28.524Z,31.40
2022-12-17T10:50:55.055Z,31.30
2022-12-17T10:53:21.554Z,31.10
2022-12-17T10:55:48.069Z,31.80
2022-12-17T10:58:14.770Z,31.50
2022-12-17T11:00:47.403Z,31.70
2022-12-17T11:03:16.136Z,32.40
2022-12-17T11:05:42.681Z,32.60
2022-12-17T11:08:09.146Z,33.40
2022-12-17T11:10:35.681Z,33.20
2022-12-17T11:13:02.337Z,33.30
2022-12-17T11:15:28.781Z,33.50
2022-12-17T11:17:55.253Z,34.20
2022-12-17T11:20:21.708Z,33.70
2022-12-17T11:22:48.177Z,33.30
2022-12-17T11:25:14.597Z,33.80
2022-12-17T11:27:41.090Z,33.80
2022-12-17T11:30:07.628Z,34.30
2022-12-17T11:32:34.102Z,33.40
2022-12-17T11:35:00.642Z,33.90
2022-12-17T11:37:27.155Z,33.40
2022-12-17T11:39:53.597Z,33.70
2022-12-17T11:42:20.106Z,34.00
2022-12-17T11:44:46.779Z,33.80
2022-12-17T11:47:13.331Z,34.10
2022-12-17T11:49:39.794Z,33.40
2022-12-17T11:52:06.277Z,34.20
2022-12-17T11:54:32.732Z,34.40
2022-12-17T11:56:59.274Z,34.60
2022-12-17T11:59:25.763Z,34.50
2022-12-17T12:01:52.399Z,34.10
2022-12-17T12:04:19.049Z,33.60
2022-12-17T12:06:45.530Z,34.00
2022-12-17T12:09:12.019Z,34.20
2022-12-17T12:11:38.475Z,34.20
2022-12-17T12:14:04.935Z,34.70
2022-12-17T12:16:31.490Z,34.30
2022-12-17T12:18:58.059Z,34.10
2022-12-17T12:21:24.528Z,33.90
2022-12-17T12:23:51.013Z,33.20
2022-12-17T12:26:17.468Z,33.90
2022-12-17T12:28:43.894Z,33.10
2022-12-17T12:31:10.367Z,33.00
2022-12-17T12:33:36.866Z,33.00
2022-12-17T12:36:03.288Z,33.00
2022-12-17T12:38:29.759Z,33.80
2022-12-17T12:40:56.249Z,32.90
2022-12-17T12:43:22.694Z,33.10
2022-12-17T12:45:50.131Z,33.00
2022-12-17T12:48:16.873Z,33.00
2022-12-17T12:50:43.333Z,33.00
2022-12-17T12:53:09.786Z,32.70
2022-12-17T12:55:36.206Z,32.90
2022-12-17T12:58:02.694Z,32.90
2022-12-17T13:00:29.148Z,32.80
2022-12-17T13:02:55.759Z,32.80
2022-12-17T13:05:22.323Z,32.20
2022-12-17T13:07:48.854Z,32.60
2022-12-17T13:10:15.342Z,32.70
2022-12-17T13:12:41.842Z,32.70
2022-12-17T13:15:08.332Z,32.60
2022-12-17T13:17:34.807Z,32.70
2022-12-17T13:20:01.300Z,32.40
2022-12-17T13:22:27.724Z,32.70
2022-12-17T13:24:54.249Z,32.10
2022-12-17T13:27:20.686Z,32.60
2022-12-17T13:29:47.256Z,32.60
2022-12-17T13:32:13.807Z,32.60
2022-12-17T13:34:40.338Z,32.00
2022-12-17T13:37:06.789Z,32.50
2022-12-17T13:39:33.228Z,32.30
2022-12-17T13:41:59.700Z,32.50
2022-12-17T13:44:26.249Z,32.20
2022-12-17T13:46:52.794Z,32.00
2022-12-17T13:49:19.239Z,32.20
2022-12-17T13:51:45.699Z,32.40
2022-12-17T13:54:12.139Z,32.10
2022-12-17T13:56:38.620Z,32.10
2022-12-17T13:59:09.399Z,32.40
2022-12-17T14:01:36.381Z,32.20
2022-12-17T14:04:07.144Z,32.20
2022-12-17T14:06:34.015Z,32.40
2022-12-17T14:09:00.490Z,32.40
2022-12-17T14:11:26.999Z,31.80
2022-12-17T14:13:53.500Z,32.40
2022-12-17T14:16:20.113Z,32.30
2022-12-17T14:18:46.703Z,31.80
2022-12-17T14:21:13.211Z,32.30
2022-12-17T14:23:39.712Z,32.30
2022-12-17T14:26:06.163Z,32.30
2022-12-17T14:28:32.712Z,31.70
2022-12-17T14:31:27.253Z,32.30
2022-12-17T14:33:45.615Z,32.20
2022-12-17T14:36:12.115Z,31.60
2022-12-17T14:38:39.252Z,31.70
2022-12-17T14:41:05.954Z,32.20
2022-12-17T14:43:32.390Z,32.00
2022-12-17T14:45:58.838Z,32.00
2022-12-17T14:48:25.394Z,32.00
2022-12-17T14:50:51.877Z,32.20
2022-12-17T14:53:18.380Z,31.60
2022-12-17T14:55:44.880Z,32.10
2022-12-17T14:58:11.384Z,31.60
2022-12-17T15:00:37.919Z,31.40
2022-12-17T15:03:04.602Z,31.20
2022-12-17T15:05:31.186Z,31.40
2022-12-17T15:07:57.703Z,31.50
2022-12-17T15:10:24.205Z,32.00
2022-12-17T15:12:50.694Z,31.90
2022-12-17T15:15:17.121Z,31.80
2022-12-17T15:17:43.588Z,31.30
2022-12-17T15:20:10.064Z,32.00
2022-12-17T15:22:36.554Z,31.80
2022-12-17T15:25:03.180Z,31.80
2022-12-17T15:27:29.668Z,31.80
2022-12-17T15:29:56.103Z,31.20
2022-12-17T15:32:22.623Z,31.10
2022-12-17T15:34:49.081Z,31.10
2022-12-17T15:37:16.405Z,31.70
2022-12-17T15:39:45.217Z,31.70
2022-12-17T15:42:11.764Z,31.30
2022-12-17T15:44:38.205Z,31.10
2022-12-17T15:47:04.733Z,31.00
2022-12-17T15:49:31.186Z,31.60
2022-12-17T15:51:57.637Z,31.80
2022-12-17T15:54:24.095Z,31.60
2022-12-17T15:59:17.585Z,31.20
2022-12-17T16:01:44.251Z,31.70
2022-12-17T16:04:17.873Z,31.70
2022-12-17T16:06:48.105Z,31.60
2022-12-17T16:09:14.546Z,31.80
2022-12-17T16:11:41.073Z,31.60
2022-12-17T16:14:07.563Z,31.10
2022-12-17T16:16:34.065Z,31.70
2022-12-17T16:19:00.584Z,31.70
2022-12-17T16:21:27.206Z,31.60
2022-12-17T16:23:53.669Z,31.60
2022-12-17T16:26:20.128Z,31.00
2022-12-17T16:28:46.669Z,31.60
2022-12-17T16:31:13.215Z,31.70
2022-12-17T16:33:39.729Z,30.90
2022-12-17T16:36:06.163Z,30.90
2022-12-17T16:38:32.698Z,30.90
2022-12-17T16:40:59.328Z,30.80
2022-12-17T16:43:25.806Z,31.40
2022-12-17T16:45:52.471Z,31.30
2022-12-17T16:48:19.520Z,31.30
2022-12-17T16:50:45.964Z,31.00
2022-12-17T16:53:12.394Z,31.20
2022-12-17T16:55:39.006Z,31.60
2022-12-17T16:58:05.627Z,31.00
2022-12-17T17:00:32.160Z,31.50
2022-12-17T17:02:58.798Z,30.90
2022-12-17T17:05:25.442Z,31.40
2022-12-17T17:07:51.920Z,31.00
2022-12-17T17:10:18.397Z,31.50
2022-12-17T17:12:44.910Z,31.60
2022-12-17T17:15:11.344Z,31.60
2022-12-17T17:17:54.014Z,31.50
2022-12-17T17:20:22.657Z,31.50
2022-12-17T17:22:49.117Z,31.30
2022-12-17T17:25:15.597Z,31.30
2022-12-17T17:27:42.217Z,30.70
2022-12-17T17:30:08.663Z,30.70
2022-12-17T17:32:35.289Z,31.30
2022-12-17T17:35:01.788Z,30.80
2022-12-17T17:37:28.206Z,31.30
2022-12-17T17:39:54.667Z,31.30
2022-12-17T17:42:21.193Z,30.70
2022-12-17T17:44:47.823Z,31.00
2022-12-17T17:47:14.320Z,30.80
2022-12-17T17:49:40.811Z,31.50
2022-12-17T17:52:09.843Z,31.40
2022-12-17T17:54:36.645Z,31.40
2022-12-17T17:57:03.125Z,31.20
2022-12-17T17:59:33.581Z,30.80
2022-12-17T18:02:00.929Z,30.70
2022-12-17T18:04:29.399Z,30.60
2022-12-17T18:07:24.375Z,30.70
2022-12-17T18:09:42.289Z,31.20
2022-12-17T18:12:08.729Z,30.60
2022-12-17T18:14:41.783Z,31.20
2022-12-17T18:17:08.593Z,31.10
2022-12-17T18:19:35.037Z,31.20
2022-12-17T18:22:01.468Z,31.20
2022-12-17T18:24:28.032Z,30.70
2022-12-17T18:26:54.455Z,31.10
2022-12-17T18:29:21.532Z,31.20
2022-12-17T18:31:51.650Z,30.70
2022-12-17T18:34:18.638Z,30.60
2022-12-17T18:36:45.211Z,31.00
2022-12-17T18:39:11.737Z,30.40
2022-12-17T18:41:38.216Z,30.80
2022-12-17T18:44:04.707Z,30.60
2022-12-17T18:46:31.249Z,30.40
2022-12-17T18:48:57.812Z,29.70
2022-12-17T18:51:24.315Z,30.20
2022-12-17T18:53:50.895Z,30.10
2022-12-17T18:56:37.966Z,29.70
2022-12-17T18:59:03.881Z,29.70
2022-12-17T19:01:30.626Z,30.00
2022-12-17T19:03:57.203Z,30.00
2022-12-17T19:06:23.650Z,30.00
2022-12-17T19:08:50.088Z,30.20
2022-12-17T19:11:16.572Z,30.00
2022-12-17T19:13:43.024Z,30.00
2022-12-17T19:16:09.579Z,29.90
2022-12-17T19:18:36.365Z,29.90
2022-12-17T19:21:02.989Z,29.40
2022-12-17T19:23:33.352Z,29.40
2022-12-17T19:26:00.180Z,29.40
2022-12-17T19:28:26.602Z,30.50
2022-12-17T19:30:53.085Z,29.50
2022-12-17T19:33:19.767Z,29.40
2022-12-17T19:35:46.270Z,29.40
2022-12-17T19:38:12.818Z,29.40
2022-12-17T19:40:39.298Z,29.90
2022-12-17T19:43:05.801Z,30.00
2022-12-17T19:45:32.290Z,29.90
2022-12-17T19:47:58.946Z,29.70
2022-12-17T19:50:25.403Z,29.10
2022-12-17T19:52:51.936Z,29.40
2022-12-17T19:55:18.467Z,29.40
2022-12-17T19:57:44.947Z,30.10
2022-12-17T20:00:11.415Z,30.20
2022-12-17T20:02:37.936Z,30.40
2022-12-17T20:05:04.601Z,30.00
2022-12-17T20:07:31.049Z,30.10
2022-12-17T20:09:57.517Z,30.10
2022-12-17T20:12:23.958Z,30.60
2022-12-17T20:14:50.428Z,30.10
2022-12-17T20:17:16.911Z,30.60
2022-12-17T20:19:43.467Z,30.50
2022-12-17T20:22:09.934Z,30.50
2022-12-17T20:24:36.440Z,30.00
2022-12-17T20:27:02.907Z,30.60
2022-12-17T20:29:29.413Z,30.50
2022-12-17T20:31:56.152Z,30.50
2022-12-17T20:34:22.730Z,30.50
2022-12-17T20:36:49.238Z,30.50
2022-12-17T20:39:15.742Z,30.50
2022-12-17T20:41:42.228Z,30.60
2022-12-17T20:44:08.713Z,30.60
2022-12-17T20:46:35.185Z,30.80
2022-12-17T20:49:01.638Z,30.70
2022-12-17T20:51:28.154Z,30.60
2022-12-17T20:53:54.657Z,29.90
2022-12-17T20:56:21.203Z,30.40
2022-12-17T20:58:47.703Z,30.20
2022-12-17T21:01:14.303Z,30.30
2022-12-17T21:03:40.902Z,29.70
2022-12-17T21:06:07.434Z,30.20
2022-12-17T21:08:33.868Z,30.20
2022-12-17T21:11:00.360Z,30.10
2022-12-17T21:13:26.794Z,30.10
2022-12-17T21:15:53.255Z,30.00
2022-12-17T21:18:19.763Z,30.00
2022-12-17T21:20:46.965Z,30.00
2022-12-17T21:23:13.403Z,29.60
2022-12-17T21:25:39.914Z,30.00
2022-12-17T21:28:06.407Z,30.00
2022-12-17T21:30:32.935Z,29.90
2022-12-17T21:32:59.376Z,29.50
2022-12-17T21:35:25.864Z,29.90
2022-12-17T21:37:52.450Z,29.90
2022-12-17T21:40:19.027Z,29.80
2022-12-17T21:42:45.505Z,29.70
2022-12-17T21:45:12.165Z,29.30
2022-12-17T21:47:39.044Z,29.50
2022-12-17T21:50:05.481Z,29.90
2022-12-17T21:52:32.208Z,29.90
2022-12-17T21:54:58.712Z,29.80
2022-12-17T21:57:25.278Z,29.70
2022-12-17T21:59:51.832Z,29.70
2022-12-17T22:02:19.592Z,29.70
2022-12-17T22:04:46.336Z,29.50
2022-12-17T22:07:21.970Z,29.20
2022-12-17T22:10:25.468Z,29.10
2022-12-17T22:12:36.192Z,29.00
2022-12-17T22:15:02.786Z,28.90
2022-12-17T22:17:29.864Z,28.90
2022-12-17T22:19:56.368Z,29.60
2022-12-17T22:22:22.807Z,29.50
2022-12-17T22:24:49.353Z,29.50
2022-12-17T22:27:16.088Z,29.50
2022-12-17T22:29:42.742Z,29.40
2022-12-17T22:32:09.247Z,29.30
2022-12-17T22:36:21.151Z,29.40
2022-12-17T22:39:07.845Z,29.50
2022-12-17T22:43:58.299Z,29.20
2022-12-17T22:44:42.467Z,28.80
2022-12-17T22:45:42.533Z,28.90
2022-12-17T22:48:08.999Z,29.40
2022-12-17T22:50:37.809Z,29.50
2022-12-17T22:53:13.644Z,29.10
2022-12-17T22:55:40.522Z,29.30
2022-12-17T22:58:07.564Z,29.20
2022-12-17T23:00:34.024Z,29.00
2022-12-17T23:03:00.663Z,28.70
2022-12-17T23:05:27.255Z,29.20
2022-12-17T23:07:53.712Z,29.20
2022-12-17T23:10:20.195Z,29.10
2022-12-17T23:12:46.637Z,29.30
2022-12-17T23:15:13.156Z,29.30
2022-12-17T23:17:39.652Z,29.20
2022-12-17T23:20:06.159Z,28.80
2022-12-17T23:22:32.664Z,29.10
2022-12-17T23:24:59.113Z,29.30
2022-12-17T23:27:25.645Z,29.40
2022-12-17T23:29:52.145Z,28.80
2022-12-17T23:32:18.712Z,28.70
2022-12-17T23:34:45.165Z,29.10
2022-12-17T23:37:11.656Z,29.10
2022-12-17T23:39:38.252Z,28.90
2022-12-17T23:42:04.876Z,29.20
2022-12-17T23:44:31.370Z,29.00
2022-12-17T23:46:57.940Z,28.80
2022-12-17T23:49:24.464Z,29.10
2022-12-17T23:51:50.947Z,29.20
2022-12-17T23:54:17.408Z,28.60
2022-12-17T23:56:43.951Z,28.90
2022-12-17T23:59:10.393Z,28.80
